Share

Anita, IA

16th St and Olive (KIAATLAN2) Elev 1270 ft | 41.39 °N, 95.00 °W | Change Station

Current weather conditions updated 2 seconds ago

Overcast
Overcast
73.0 °F
Feels Like 77 °F
N
0.0
Wind Variable Wind from North
Gusts 0.0 mph
Sunrise 6:33 AM
Sunset 8:03 PM
Moon Waning Gibbous

Tomorrow is forecast to be nearly the same temperature as today. Thunderstorms tomorrow night.

Pressure 29.99 in
Visibility 10.0 miles
Clouds Overcast 8500 ft
Heat Index 77 °F
Dew Point 43 °F
Humidity 34%
Rainfall 0.00 in
Snow Depth Not available.
UV 0 out of 16
Pollen 11.60 out of 12
Air Quality Not available.
Flu Activity Sporadic
METAR KAIO 200035Z AUTO 18013KT 10SM OVC085 23/06 A2999 RMK AO2

More Conditions Fewer Conditions

Pressure 29.99 in
Visibility 10.0 miles
Clouds Overcast 8500 ft
Heat Index 77 °F
Dew Point 43 °F
Humidity 34%
Rainfall 0.00 in
Snow Depth Not available.
UV 0 out of 16
Pollen 11.60 out of 12
Air Quality Not available.
Flu Activity Sporadic
METAR KAIO 200035Z AUTO 18013KT 10SM OVC085 23/06 A2999 RMK AO2

More Conditions Fewer Conditions

10-Day Weather Forecast

Almanac

Astronomy

Apr. 19, 2014 Rise Set
Actual Time 6:33 AM CDT 8:03 PM CDT
Civil Twilight 6:04 AM CDT 8:32 PM CDT
Nautical Twilight 5:29 AM CDT 9:08 PM CDT
Astronomical Twilight 4:52 AM CDT 9:45 PM CDT
Moon No Moon Rise 9:50 AM CDT (4/19)
Length of Visible Light 14h 28m
Length of Day
13h 30m
Tomorrow will be 2m 36s longer.
Waning Gibbous, 75% of the Moon is Illuminated
Today
Waning Gibbous
Apr 22
Last Quarter
Apr 29
New
May 6
First Quarter
May 14
Full

Today's Extremes

State Highs State Lows

Community

  • White-Crowned Sparrow
    White-Crowned Sparrow
  • New Day
    New Day
  • Happy Easter!
    Happy Easter!
  • poppy bloom near Mazar-e-Sharif
    poppy bloom near Mazar-e-Sharif
  • Happy Easter WU friends!!!!
    Happy Easter WU friends!!!!

WunderPhotos

Upload Photos

1,702,996 photos uploaded!

WunderBlogs® & News

Nearby

Snow Depth

Station Depth Elevation
No new snow has been reported.

Coastal Water Temperatures

Place Temperature
No Stations Reporting

Earthquake Activity

City Distance Mag. Time & Date
No recent earthquake activity has been reported nearby.
Minimum magnitude displayed is 2.5.

Nearby Weather Stations

Station Location Temp. Heat Index Dew Point Humidity Wind Precip. Elev Updated Type
16th St and Olive, Atlantic, IA 73.0 °F 77 °F 43 °F 34% North  at  0.0 mph 0.00 in / hr 1270 ft 7:42 PM CDT Rapid Fire
Herbers Seed, Audubon, IA 72.3 °F 77 °F 47 °F 40% South  at  0.0 mph - / hr 1385 ft 7:38 PM CDT Normal

Show More Stations Show Fewer Stations

What do you think?

We're not finished. Please let us know what you like, what you don't like, and what you are still missing.